createdAt,value
2023-05-25T00:01:01.984Z,49.88
2023-05-25T00:03:33.835Z,50.25
2023-05-25T00:06:02.385Z,50.54
2023-05-25T00:08:30.811Z,50.47
2023-05-25T00:10:58.918Z,49.95
2023-05-25T00:13:27.046Z,50.39
2023-05-25T00:15:55.706Z,50.17
2023-05-25T00:18:25.001Z,50.06
2023-05-25T00:20:55.121Z,50.11
2023-05-25T00:23:23.538Z,50.16
2023-05-25T00:25:51.570Z,50.35
2023-05-25T00:28:19.720Z,50.30
2023-05-25T00:30:48.156Z,50.61
2023-05-25T00:33:16.608Z,50.27
2023-05-25T00:35:45.409Z,50.08
2023-05-25T00:38:17.745Z,49.92
2023-05-25T00:40:46.685Z,50.21
2023-05-25T00:43:15.276Z,50.23
2023-05-25T00:45:43.582Z,50.47
2023-05-25T00:48:12.207Z,50.43
2023-05-25T00:50:42.351Z,50.33
2023-05-25T00:53:12.777Z,50.57
2023-05-25T00:55:46.751Z,50.55
2023-05-25T00:58:17.917Z,51.70
2023-05-25T01:00:49.481Z,50.63
2023-05-25T01:03:22.119Z,50.66
2023-05-25T01:05:55.266Z,50.78
2023-05-25T01:08:25.389Z,50.76
2023-05-25T01:10:58.206Z,50.82
2023-05-25T01:13:26.548Z,51.45
2023-05-25T01:15:55.380Z,50.91
2023-05-25T01:18:23.536Z,50.86
2023-05-25T01:20:59.882Z,50.89
2023-05-25T01:23:33.939Z,50.66
2023-05-25T01:26:06.792Z,51.27
2023-05-25T01:28:41.114Z,50.53
2023-05-25T01:31:10.325Z,50.56
2023-05-25T01:33:39.703Z,50.02
2023-05-25T01:36:09.174Z,50.47
2023-05-25T01:38:38.366Z,50.85
2023-05-25T01:41:06.727Z,50.95
2023-05-25T01:43:34.799Z,51.21
2023-05-25T01:46:12.227Z,51.17
2023-05-25T01:48:53.192Z,52.12
2023-05-25T01:51:32.350Z,51.73
2023-05-25T01:54:04.274Z,52.36
2023-05-25T01:56:34.621Z,51.66
2023-05-25T01:59:04.426Z,51.77
2023-05-25T02:01:36.574Z,51.52
2023-05-25T02:04:05.855Z,52.79
2023-05-25T02:06:36.883Z,53.39
2023-05-25T02:09:07.029Z,53.83
2023-05-25T02:11:35.027Z,52.87
2023-05-25T02:14:03.056Z,52.74
2023-05-25T02:16:31.623Z,53.43
2023-05-25T02:19:01.212Z,53.96
2023-05-25T02:21:29.416Z,52.74
2023-05-25T02:23:59.083Z,53.01
2023-05-25T02:26:27.569Z,54.02
2023-05-25T02:28:56.295Z,54.15
2023-05-25T02:31:24.299Z,54.12
2023-05-25T02:33:52.668Z,54.07
2023-05-25T02:36:21.187Z,52.79
2023-05-25T02:38:52.169Z,52.77
2023-05-25T02:41:22.338Z,52.78
2023-05-25T02:43:50.761Z,54.03
2023-05-25T02:46:19.036Z,53.52
2023-05-25T02:48:48.519Z,53.13
2023-05-25T02:51:16.637Z,53.67
2023-05-25T02:53:44.786Z,53.15
2023-05-25T02:56:13.288Z,54.32
2023-05-25T02:58:42.891Z,55.30
2023-05-25T03:01:18.298Z,55.06
2023-05-25T03:03:47.788Z,54.91
2023-05-25T03:06:16.070Z,54.57
2023-05-25T03:08:44.641Z,54.37
2023-05-25T03:11:12.925Z,55.49
2023-05-25T03:13:42.551Z,54.86
2023-05-25T03:16:11.013Z,54.20
2023-05-25T03:18:39.488Z,54.30
2023-05-25T03:21:08.065Z,54.40
2023-05-25T03:23:36.405Z,54.78
2023-05-25T03:26:05.038Z,53.84
2023-05-25T03:28:33.829Z,54.77
2023-05-25T03:31:05.220Z,54.64
2023-05-25T03:33:34.150Z,53.68
2023-05-25T03:36:02.562Z,53.35
2023-05-25T03:38:31.088Z,53.83
2023-05-25T03:41:06.309Z,53.70
2023-05-25T03:43:34.902Z,53.58
2023-05-25T03:46:06.411Z,53.27
2023-05-25T03:48:41.820Z,53.29
2023-05-25T03:51:11.696Z,53.77
2023-05-25T03:53:40.043Z,53.95
2023-05-25T03:56:09.178Z,53.84
2023-05-25T03:58:38.411Z,54.84
2023-05-25T04:01:10.402Z,53.65
2023-05-25T04:03:38.837Z,53.55
2023-05-25T04:06:07.343Z,53.36
2023-05-25T04:08:35.422Z,54.16
2023-05-25T04:11:05.646Z,54.87
2023-05-25T04:13:36.320Z,54.40
2023-05-25T04:16:09.557Z,54.22
2023-05-25T04:18:37.848Z,54.63
2023-05-25T04:21:06.254Z,54.74
2023-05-25T04:23:34.950Z,54.55
2023-05-25T04:26:06.046Z,54.55
2023-05-25T04:28:34.471Z,53.64
2023-05-25T04:31:02.622Z,53.59
2023-05-25T04:33:32.490Z,53.32
2023-05-25T04:36:01.022Z,53.89
2023-05-25T04:38:30.823Z,53.51
2023-05-25T04:41:01.985Z,53.57
2023-05-25T04:43:30.915Z,53.74
2023-05-25T04:45:59.770Z,53.18
2023-05-25T04:48:29.587Z,54.60
2023-05-25T04:51:03.019Z,55.91
2023-05-25T04:53:32.338Z,55.49
2023-05-25T04:56:00.666Z,55.75
2023-05-25T04:58:29.554Z,56.27
2023-05-25T05:00:57.870Z,56.68
2023-05-25T05:03:26.285Z,56.37
2023-05-25T05:05:54.589Z,57.22
2023-05-25T05:08:24.577Z,57.37
2023-05-25T05:10:53.240Z,57.67
2023-05-25T05:13:21.328Z,57.41
2023-05-25T05:15:49.404Z,58.62
2023-05-25T05:18:17.807Z,58.06
2023-05-25T05:20:46.099Z,56.44
2023-05-25T05:23:14.551Z,58.11
2023-05-25T05:25:44.507Z,57.98
2023-05-25T05:28:12.830Z,57.63
2023-05-25T05:30:41.059Z,57.29
2023-05-25T05:33:09.482Z,56.98
2023-05-25T05:35:37.900Z,57.59
2023-05-25T05:38:06.234Z,57.12
2023-05-25T05:40:34.806Z,58.61
2023-05-25T05:43:04.170Z,58.03
2023-05-25T05:45:32.263Z,58.28
2023-05-25T05:48:00.588Z,57.35
2023-05-25T05:50:29.237Z,57.72
2023-05-25T05:52:57.429Z,57.23
2023-05-25T05:55:26.419Z,56.96
2023-05-25T05:57:54.611Z,57.82
2023-05-25T06:00:24.710Z,57.13
2023-05-25T06:02:53.294Z,57.32
2023-05-25T06:05:21.888Z,56.70
2023-05-25T06:07:50.196Z,56.53
2023-05-25T06:10:20.045Z,55.81
2023-05-25T06:12:48.219Z,56.35
2023-05-25T06:15:17.538Z,55.42
2023-05-25T06:17:47.300Z,55.64
2023-05-25T06:20:16.674Z,55.37
2023-05-25T06:22:44.897Z,54.83
2023-05-25T06:25:14.070Z,55.35
2023-05-25T06:27:42.204Z,54.76
2023-05-25T06:30:10.959Z,54.77
2023-05-25T06:32:39.997Z,54.65
2023-05-25T06:35:13.336Z,54.86
2023-05-25T06:37:41.846Z,54.74
2023-05-25T06:40:11.379Z,54.44
2023-05-25T06:42:39.493Z,54.18
2023-05-25T06:45:11.103Z,54.34
2023-05-25T06:47:39.289Z,53.69
2023-05-25T06:50:10.474Z,53.50
2023-05-25T06:52:38.468Z,53.47
2023-05-25T06:55:08.508Z,53.30
2023-05-25T06:57:36.891Z,53.39
2023-05-25T07:00:11.601Z,53.37
2023-05-25T07:02:40.213Z,53.22
2023-05-25T07:05:10.171Z,53.78
2023-05-25T07:07:38.303Z,54.26
2023-05-25T07:10:08.007Z,54.36
2023-05-25T07:12:36.018Z,54.09
2023-05-25T07:15:04.181Z,53.54
2023-05-25T07:17:32.864Z,53.34
2023-05-25T07:20:01.035Z,53.24
2023-05-25T07:22:30.703Z,53.40
2023-05-25T07:24:59.023Z,53.07
2023-05-25T07:27:27.196Z,52.97
2023-05-25T07:29:55.307Z,53.16
2023-05-25T07:32:23.697Z,52.75
2023-05-25T07:34:51.780Z,52.81
2023-05-25T07:37:19.879Z,52.62
2023-05-25T07:39:50.558Z,52.21
2023-05-25T07:42:21.005Z,52.19
2023-05-25T07:44:49.810Z,52.37
2023-05-25T07:47:17.798Z,51.79
2023-05-25T07:49:45.969Z,51.83
2023-05-25T07:52:14.377Z,51.55
2023-05-25T07:54:42.422Z,51.17
2023-05-25T07:57:12.107Z,51.08
2023-05-25T07:59:40.442Z,50.98
2023-05-25T08:02:08.471Z,51.09
2023-05-25T08:04:37.509Z,50.86
2023-05-25T08:07:05.863Z,50.90
2023-05-25T08:09:33.959Z,50.48
2023-05-25T08:12:24.226Z,50.23
2023-05-25T08:14:51.871Z,49.96
2023-05-25T08:17:20.257Z,50.14
2023-05-25T08:19:48.476Z,49.65
2023-05-25T08:22:16.458Z,49.07
2023-05-25T08:24:44.725Z,49.02
2023-05-25T08:27:12.751Z,49.50
2023-05-25T08:29:40.811Z,49.47
2023-05-25T08:32:10.748Z,49.19
2023-05-25T08:34:38.731Z,48.42
2023-05-25T08:37:06.832Z,48.68
2023-05-25T08:39:35.178Z,48.15
2023-05-25T08:42:03.823Z,48.03
2023-05-25T08:44:32.309Z,47.72
2023-05-25T08:47:06.739Z,48.47
2023-05-25T08:49:39.603Z,47.35
2023-05-25T08:52:11.787Z,47.90
2023-05-25T08:54:44.175Z,47.96
2023-05-25T08:57:18.139Z,48.07
2023-05-25T08:59:52.978Z,47.85
2023-05-25T09:02:32.681Z,47.13
2023-05-25T09:05:02.848Z,45.88
2023-05-25T09:07:32.032Z,45.50
2023-05-25T09:10:01.915Z,45.96
2023-05-25T09:12:31.399Z,45.48
2023-05-25T09:14:59.708Z,44.63
2023-05-25T09:17:28.238Z,45.47
2023-05-25T09:19:56.591Z,45.39
2023-05-25T09:22:26.180Z,44.42
2023-05-25T09:24:55.084Z,44.11
2023-05-25T09:27:24.565Z,43.98
2023-05-25T09:29:53.162Z,43.25
2023-05-25T09:32:21.287Z,43.45
2023-05-25T09:34:49.828Z,44.04
2023-05-25T09:37:19.611Z,44.46
2023-05-25T09:39:53.192Z,44.04
2023-05-25T09:42:21.727Z,44.17
2023-05-25T09:44:50.596Z,45.11
2023-05-25T09:47:18.789Z,45.02
2023-05-25T09:49:49.434Z,44.19
2023-05-25T09:52:17.506Z,44.39
2023-05-25T09:54:46.998Z,43.71
2023-05-25T09:57:17.442Z,42.86
2023-05-25T09:59:46.186Z,43.00
2023-05-25T10:02:14.506Z,42.95
2023-05-25T10:04:43.009Z,42.40
2023-05-25T10:07:11.458Z,42.32
2023-05-25T10:09:42.278Z,42.66
2023-05-25T10:12:11.332Z,42.39
2023-05-25T10:14:43.955Z,41.19
2023-05-25T10:17:15.189Z,41.21
2023-05-25T10:19:51.598Z,41.06
2023-05-25T10:22:22.858Z,39.89
2023-05-25T10:24:56.690Z,40.25
2023-05-25T10:27:27.746Z,39.46
2023-05-25T10:30:00.904Z,41.08
2023-05-25T10:32:30.599Z,39.99
2023-05-25T10:35:00.539Z,41.22
2023-05-25T10:37:29.244Z,39.52
2023-05-25T10:39:58.978Z,40.23
2023-05-25T10:42:27.666Z,39.91
2023-05-25T10:44:56.530Z,40.53
2023-05-25T10:47:26.893Z,41.03
2023-05-25T10:49:58.089Z,40.07
2023-05-25T10:52:30.058Z,40.45
2023-05-25T10:54:59.320Z,39.17
2023-05-25T10:57:28.072Z,40.31
2023-05-25T11:00:04.424Z,40.41
2023-05-25T11:02:55.326Z,40.54
2023-05-25T11:05:40.284Z,37.71
2023-05-25T11:08:10.121Z,37.44
2023-05-25T11:10:59.895Z,40.74
2023-05-25T11:13:38.907Z,36.07
2023-05-25T11:16:35.913Z,38.16
2023-05-25T11:19:15.702Z,40.14
2023-05-25T11:21:45.490Z,39.54
2023-05-25T11:24:15.884Z,39.84
2023-05-25T11:26:58.016Z,39.46
2023-05-25T11:29:27.195Z,37.02
2023-05-25T11:31:56.724Z,38.87
2023-05-25T11:34:26.253Z,38.23
2023-05-25T11:36:57.751Z,38.62
2023-05-25T11:39:25.812Z,38.17
2023-05-25T11:41:57.054Z,38.20
2023-05-25T11:44:30.184Z,38.86
2023-05-25T11:47:01.741Z,38.16
2023-05-25T11:49:31.697Z,38.96
2023-05-25T11:51:59.898Z,37.90
2023-05-25T11:54:29.853Z,38.84
2023-05-25T11:56:59.895Z,38.08
2023-05-25T11:59:30.544Z,37.89
2023-05-25T12:02:02.046Z,38.03
2023-05-25T12:04:34.075Z,37.82
2023-05-25T12:07:06.279Z,37.90
2023-05-25T12:09:36.650Z,37.36
2023-05-25T12:12:05.371Z,38.41
2023-05-25T12:14:36.150Z,39.01
2023-05-25T12:17:04.939Z,39.19
2023-05-25T12:19:34.774Z,38.97
2023-05-25T12:22:03.845Z,38.71
2023-05-25T12:24:32.326Z,38.58
2023-05-25T12:27:02.377Z,38.46
2023-05-25T12:29:30.465Z,38.00
2023-05-25T12:32:03.584Z,38.06
2023-05-25T12:34:31.664Z,37.05
2023-05-25T12:37:01.612Z,37.40
2023-05-25T12:39:38.783Z,37.20
2023-05-25T12:42:15.233Z,34.52
2023-05-25T12:44:44.300Z,34.82
2023-05-25T12:47:14.392Z,37.43
2023-05-25T12:49:44.019Z,37.46
2023-05-25T12:52:33.166Z,35.71
2023-05-25T12:55:20.161Z,33.93
2023-05-25T12:57:52.456Z,32.77
2023-05-25T13:00:22.001Z,34.84
2023-05-25T13:02:50.964Z,36.96
2023-05-25T13:05:20.864Z,37.14
2023-05-25T13:07:50.880Z,37.38
2023-05-25T13:10:19.618Z,37.30
2023-05-25T13:12:48.460Z,37.27
2023-05-25T13:15:21.056Z,37.17
2023-05-25T13:17:50.486Z,35.26
2023-05-25T13:20:19.842Z,35.17
2023-05-25T13:22:50.694Z,34.71
2023-05-25T13:25:22.042Z,36.22
2023-05-25T13:27:51.946Z,35.17
2023-05-25T13:30:22.118Z,35.84
2023-05-25T13:32:51.916Z,36.04
2023-05-25T13:35:34.090Z,34.97
2023-05-25T13:38:03.603Z,35.10
2023-05-25T13:40:32.056Z,34.85
2023-05-25T13:43:00.175Z,34.70
2023-05-25T13:45:28.575Z,35.18
2023-05-25T13:47:56.915Z,35.68
2023-05-25T13:50:25.122Z,35.64
2023-05-25T13:52:53.188Z,35.14
2023-05-25T13:55:24.054Z,34.78
2023-05-25T13:57:52.906Z,34.97
2023-05-25T14:00:21.866Z,34.96
2023-05-25T14:02:51.904Z,35.70
2023-05-25T14:05:20.791Z,34.07
2023-05-25T14:07:49.351Z,35.68
2023-05-25T14:10:17.807Z,35.86
2023-05-25T14:12:47.901Z,36.16
2023-05-25T14:15:18.838Z,35.67
2023-05-25T14:17:47.459Z,36.54
2023-05-25T14:20:22.395Z,35.87
2023-05-25T14:22:50.684Z,36.52
2023-05-25T14:25:19.078Z,36.05
2023-05-25T14:27:48.484Z,36.13
2023-05-25T14:30:17.156Z,35.62
2023-05-25T14:32:45.318Z,34.94
2023-05-25T14:35:13.363Z,34.34
2023-05-25T14:37:42.222Z,34.86
2023-05-25T14:40:11.428Z,33.79
2023-05-25T14:42:39.444Z,33.84
2023-05-25T14:45:11.586Z,32.89
2023-05-25T14:47:40.797Z,33.94
2023-05-25T14:50:09.738Z,34.31
2023-05-25T14:52:37.880Z,34.22
2023-05-25T14:55:06.556Z,33.51
2023-05-25T14:57:34.821Z,34.49
2023-05-25T15:00:03.299Z,34.56
2023-05-25T15:02:33.118Z,35.39
2023-05-25T15:05:01.579Z,34.84
2023-05-25T15:07:29.676Z,33.99
2023-05-25T15:09:57.805Z,33.44
2023-05-25T15:12:26.035Z,31.65
2023-05-25T15:14:54.055Z,30.48
2023-05-25T15:17:22.024Z,30.87
2023-05-25T15:19:51.805Z,31.49
2023-05-25T15:22:19.915Z,29.83
2023-05-25T15:24:48.011Z,30.58
2023-05-25T15:27:16.256Z,30.22
2023-05-25T15:29:44.257Z,30.81
2023-05-25T15:32:13.740Z,29.29
2023-05-25T15:34:42.735Z,30.92
2023-05-25T15:37:13.155Z,29.84
2023-05-25T15:39:41.398Z,30.86
2023-05-25T15:42:09.456Z,30.43
2023-05-25T15:44:37.494Z,30.72
2023-05-25T15:47:06.633Z,32.16
2023-05-25T15:49:36.767Z,31.78
2023-05-25T15:52:06.573Z,32.01
2023-05-25T15:54:36.363Z,32.15
2023-05-25T15:57:04.635Z,29.85
2023-05-25T15:59:32.622Z,31.87
2023-05-25T16:02:01.004Z,32.14
2023-05-25T16:04:29.314Z,31.57
2023-05-25T16:06:58.497Z,30.55
2023-05-25T16:09:27.451Z,31.61
2023-05-25T16:11:57.090Z,29.95
2023-05-25T16:14:25.149Z,30.50
2023-05-25T16:16:53.263Z,31.09
2023-05-25T16:19:21.574Z,29.06
2023-05-25T16:21:49.729Z,30.50
2023-05-25T16:24:17.822Z,30.06
2023-05-25T16:26:46.081Z,31.55
2023-05-25T16:29:15.559Z,31.34
2023-05-25T16:31:43.577Z,30.77
2023-05-25T16:34:11.774Z,31.06
2023-05-25T16:36:39.752Z,31.48
2023-05-25T16:39:08.102Z,30.80
2023-05-25T16:41:36.414Z,31.74
2023-05-25T16:44:04.532Z,30.97
2023-05-25T16:46:34.129Z,30.93
2023-05-25T16:49:02.536Z,30.15
2023-05-25T16:51:30.727Z,30.34
2023-05-25T16:53:58.786Z,29.18
2023-05-25T16:56:27.223Z,30.08
2023-05-25T16:58:55.162Z,30.34
2023-05-25T17:01:23.227Z,30.17
2023-05-25T17:03:53.044Z,30.19
2023-05-25T17:06:21.163Z,29.67
2023-05-25T17:08:49.150Z,29.93
2023-05-25T17:11:17.518Z,30.06
2023-05-25T17:13:45.540Z,29.68
2023-05-25T17:16:13.586Z,29.89
2023-05-25T17:18:42.324Z,28.90
2023-05-25T17:21:11.928Z,29.66
2023-05-25T17:23:39.930Z,29.25
2023-05-25T17:26:08.202Z,29.91
2023-05-25T17:28:36.271Z,30.23
2023-05-25T17:31:04.397Z,30.10
2023-05-25T17:33:32.648Z,30.13
2023-05-25T17:36:00.813Z,30.36
2023-05-25T17:38:30.163Z,30.22
2023-05-25T17:40:58.581Z,30.14
2023-05-25T17:43:26.552Z,29.95
2023-05-25T17:45:54.699Z,29.74
2023-05-25T17:48:23.016Z,30.34
2023-05-25T17:50:51.006Z,30.41
2023-05-25T17:53:19.096Z,30.51
2023-05-25T17:55:48.897Z,30.56
2023-05-25T17:58:17.020Z,30.22
2023-05-25T18:00:45.137Z,30.50
2023-05-25T18:03:13.736Z,30.63
2023-05-25T18:05:41.902Z,30.58
2023-05-25T18:08:09.839Z,31.16
2023-05-25T18:10:38.211Z,31.05
2023-05-25T18:13:07.577Z,30.75
2023-05-25T18:15:35.629Z,31.16
2023-05-25T18:18:05.764Z,31.77
2023-05-25T18:20:34.573Z,32.44
2023-05-25T18:23:03.317Z,32.62
2023-05-25T18:25:31.600Z,34.49
2023-05-25T18:27:59.758Z,33.42
2023-05-25T18:30:29.240Z,34.28
2023-05-25T18:32:57.548Z,34.20
2023-05-25T18:35:25.693Z,34.41
2023-05-25T18:37:53.780Z,34.76
2023-05-25T18:40:22.157Z,35.11
2023-05-25T18:42:50.880Z,34.93
2023-05-25T18:45:18.932Z,35.00
2023-05-25T18:47:48.607Z,35.64
2023-05-25T18:50:17.062Z,35.74
2023-05-25T18:52:46.833Z,36.05
2023-05-25T18:55:15.485Z,36.37
2023-05-25T18:57:43.528Z,36.01
2023-05-25T19:00:13.073Z,36.53
2023-05-25T19:02:42.014Z,36.48
2023-05-25T19:05:12.258Z,37.01
2023-05-25T19:07:54.784Z,37.13
2023-05-25T19:10:27.583Z,37.07
2023-05-25T19:12:55.942Z,37.38
2023-05-25T19:15:24.065Z,37.50
2023-05-25T19:17:52.390Z,38.00
2023-05-25T19:20:21.948Z,37.72
2023-05-25T19:22:50.127Z,38.11
2023-05-25T19:25:18.475Z,38.35
2023-05-25T19:27:46.521Z,38.33
2023-05-25T19:30:15.872Z,38.78
2023-05-25T19:32:44.290Z,38.83
2023-05-25T19:35:12.691Z,38.80
2023-05-25T19:37:42.370Z,39.48
2023-05-25T19:40:11.242Z,39.46
2023-05-25T19:42:39.300Z,40.34
2023-05-25T19:45:07.886Z,39.88
2023-05-25T19:47:36.389Z,39.72
2023-05-25T19:50:04.985Z,39.83
2023-05-25T19:52:33.231Z,40.51
2023-05-25T19:55:02.841Z,40.57
2023-05-25T19:57:30.882Z,41.08
2023-05-25T19:59:58.905Z,40.55
2023-05-25T20:02:27.611Z,40.73
2023-05-25T20:04:56.041Z,40.68
2023-05-25T20:07:24.345Z,40.45
2023-05-25T20:09:52.493Z,40.63
2023-05-25T20:12:22.381Z,41.00
2023-05-25T20:14:50.496Z,40.79
2023-05-25T20:17:18.617Z,40.80
2023-05-25T20:19:46.816Z,40.85
2023-05-25T20:22:14.866Z,40.94
2023-05-25T20:24:42.941Z,41.00
2023-05-25T20:27:11.348Z,41.42
2023-05-25T20:29:40.733Z,41.47
2023-05-25T20:32:08.972Z,42.00
2023-05-25T20:34:37.395Z,41.87
2023-05-25T20:37:05.586Z,42.19
2023-05-25T20:39:33.754Z,42.05
2023-05-25T20:42:02.686Z,41.98
2023-05-25T20:44:31.870Z,41.90
2023-05-25T20:47:01.454Z,42.10
2023-05-25T20:49:29.903Z,42.37
2023-05-25T20:51:57.934Z,42.52
2023-05-25T20:54:26.245Z,42.43
2023-05-25T20:56:54.515Z,42.41
2023-05-25T20:59:23.480Z,42.58
2023-05-25T21:01:51.541Z,43.61
2023-05-25T21:04:21.681Z,42.45
2023-05-25T21:06:49.843Z,42.65
2023-05-25T21:09:17.972Z,42.80
2023-05-25T21:11:46.379Z,42.74
2023-05-25T21:14:14.519Z,43.27
2023-05-25T21:16:42.815Z,42.94
2023-05-25T21:19:11.509Z,43.18
2023-05-25T21:21:40.913Z,43.32
2023-05-25T21:24:09.004Z,42.89
2023-05-25T21:26:37.297Z,43.95
2023-05-25T21:29:05.375Z,43.17
2023-05-25T21:31:33.459Z,43.06
2023-05-25T21:34:01.925Z,43.17
2023-05-25T21:36:30.073Z,43.30
2023-05-25T21:38:59.438Z,43.26
2023-05-25T21:41:27.856Z,43.43
2023-05-25T21:43:55.938Z,43.56
2023-05-25T21:46:24.025Z,43.50
2023-05-25T21:48:52.408Z,43.74
2023-05-25T21:51:20.603Z,43.64
2023-05-25T21:53:51.885Z,43.78
2023-05-25T21:56:21.863Z,43.51
2023-05-25T21:58:49.962Z,44.17
2023-05-25T22:01:19.149Z,43.98
2023-05-25T22:03:47.872Z,43.75
2023-05-25T22:06:16.113Z,43.84
2023-05-25T22:08:44.268Z,44.04
2023-05-25T22:11:12.672Z,43.95
2023-05-25T22:13:42.235Z,43.97
2023-05-25T22:16:10.597Z,44.11
2023-05-25T22:18:38.844Z,44.22
2023-05-25T22:21:07.112Z,44.30
2023-05-25T22:23:35.222Z,44.35
2023-05-25T22:26:05.015Z,44.12
2023-05-25T22:28:33.032Z,44.13
2023-05-25T22:31:02.480Z,45.01
2023-05-25T22:33:31.189Z,44.69
2023-05-25T22:35:59.322Z,44.43
2023-05-25T22:38:27.261Z,44.63
2023-05-25T22:40:55.723Z,45.12
2023-05-25T22:43:23.746Z,44.85
2023-05-25T22:45:54.013Z,45.06
2023-05-25T22:48:23.806Z,45.01
2023-05-25T22:50:51.824Z,45.43
2023-05-25T22:53:20.111Z,45.18
2023-05-25T22:55:49.095Z,44.99
2023-05-25T22:58:17.401Z,45.10
2023-05-25T23:00:45.561Z,45.44
2023-05-25T23:03:14.199Z,45.35
2023-05-25T23:05:44.471Z,46.01
2023-05-25T23:08:12.582Z,45.81
2023-05-25T23:10:40.948Z,45.33
2023-05-25T23:13:09.016Z,46.33
2023-05-25T23:15:40.184Z,45.57
2023-05-25T23:18:08.661Z,45.70
2023-05-25T23:20:36.773Z,46.36
2023-05-25T23:23:06.137Z,46.33
2023-05-25T23:25:34.312Z,46.10
2023-05-25T23:28:02.795Z,46.12
2023-05-25T23:30:30.883Z,46.16
2023-05-25T23:33:00.046Z,45.90
2023-05-25T23:35:28.627Z,46.00
2023-05-25T23:37:57.726Z,46.19
2023-05-25T23:40:27.514Z,46.35
2023-05-25T23:42:55.803Z,45.84
2023-05-25T23:45:23.895Z,45.67
2023-05-25T23:47:52.314Z,45.93
2023-05-25T23:50:20.574Z,46.26
2023-05-25T23:52:48.819Z,46.10
2023-05-25T23:55:17.304Z,46.35
2023-05-25T23:57:47.042Z,46.69
